createdAt,value
2023-04-15T00:01:13.256Z,6.63
2023-04-15T00:03:41.197Z,6.40
2023-04-15T00:06:08.546Z,6.75
2023-04-15T00:08:35.722Z,6.22
2023-04-15T00:11:05.877Z,6.38
2023-04-15T00:13:34.092Z,7.25
2023-04-15T00:16:01.673Z,6.95
2023-04-15T00:18:29.926Z,7.68
2023-04-15T00:20:57.573Z,7.45
2023-04-15T00:23:25.069Z,7.60
2023-04-15T00:25:52.461Z,8.00
2023-04-15T00:28:19.809Z,7.90
2023-04-15T00:30:47.330Z,8.57
2023-04-15T00:33:16.375Z,8.15
2023-04-15T00:35:43.599Z,8.98
2023-04-15T00:38:11.518Z,8.55
2023-04-15T00:40:38.997Z,9.00
2023-04-15T00:43:07.068Z,9.45
2023-04-15T00:45:34.275Z,9.40
2023-04-15T00:48:01.907Z,9.07
2023-04-15T00:50:29.196Z,9.52
2023-04-15T00:52:56.828Z,11.25
2023-04-15T00:55:24.020Z,10.45
2023-04-15T00:57:52.546Z,10.27
2023-04-15T01:00:21.155Z,10.48
2023-04-15T01:02:49.168Z,10.40
2023-04-15T01:05:18.532Z,10.27
2023-04-15T01:07:47.158Z,10.57
2023-04-15T01:10:14.566Z,10.25
2023-04-15T01:12:42.443Z,10.07
2023-04-15T01:15:11.031Z,10.55
2023-04-15T01:17:39.797Z,10.38
2023-04-15T01:20:10.131Z,10.85
2023-04-15T01:22:38.305Z,10.65
2023-04-15T01:25:13.155Z,9.98
2023-04-15T01:27:42.492Z,10.32
2023-04-15T01:30:10.512Z,10.25
2023-04-15T01:32:38.521Z,10.13
2023-04-15T01:35:06.398Z,10.75
2023-04-15T01:37:34.162Z,10.13
2023-04-15T01:40:01.354Z,10.70
2023-04-15T01:42:28.689Z,10.35
2023-04-15T01:44:55.917Z,10.05
2023-04-15T01:47:23.189Z,10.98
2023-04-15T01:49:50.416Z,10.95
2023-04-15T01:52:17.641Z,11.70
2023-04-15T01:54:44.998Z,10.70
2023-04-15T01:57:12.289Z,12.23
2023-04-15T01:59:39.422Z,11.48
2023-04-15T02:02:06.924Z,12.50
2023-04-15T02:04:34.298Z,11.80
2023-04-15T02:07:01.730Z,12.05
2023-04-15T02:09:29.230Z,12.05
2023-04-15T02:11:56.717Z,11.73
2023-04-15T02:14:23.934Z,12.07
2023-04-15T02:16:51.509Z,12.63
2023-04-15T02:19:18.876Z,12.52
2023-04-15T02:21:46.271Z,12.25
2023-04-15T02:24:13.456Z,12.88
2023-04-15T02:26:40.637Z,11.95
2023-04-15T02:29:07.870Z,12.57
2023-04-15T02:31:40.350Z,14.02
2023-04-15T02:34:08.205Z,13.38
2023-04-15T02:36:35.404Z,12.90
2023-04-15T02:39:04.309Z,13.40
2023-04-15T02:41:31.628Z,12.85
2023-04-15T02:43:58.918Z,13.38
2023-04-15T02:46:27.337Z,13.48
2023-04-15T02:48:54.693Z,14.20
2023-04-15T02:51:22.821Z,14.10
2023-04-15T02:53:50.702Z,13.88
2023-04-15T02:56:19.360Z,13.75
2023-04-15T02:58:46.703Z,14.48
2023-04-15T03:01:14.538Z,14.70
2023-04-15T03:03:42.019Z,14.73
2023-04-15T03:06:09.448Z,14.48
2023-04-15T03:08:37.269Z,15.05
2023-04-15T03:11:05.069Z,15.75
2023-04-15T03:13:32.230Z,14.85
2023-04-15T03:15:59.476Z,15.48
2023-04-15T03:18:26.691Z,14.98
2023-04-15T03:20:53.836Z,15.50
2023-04-15T03:23:21.313Z,14.88
2023-04-15T03:25:48.555Z,15.50
2023-04-15T03:28:15.787Z,15.45
2023-04-15T03:30:43.048Z,15.43
2023-04-15T03:33:10.272Z,16.33
2023-04-15T03:35:38.040Z,16.65
2023-04-15T03:38:05.196Z,16.55
2023-04-15T03:40:32.349Z,16.33
2023-04-15T03:42:59.499Z,17.05
2023-04-15T03:45:26.667Z,16.73
2023-04-15T03:47:53.831Z,16.10
2023-04-15T03:50:21.162Z,16.63
2023-04-15T03:52:50.743Z,16.80
2023-04-15T03:55:18.459Z,16.95
2023-04-15T03:57:46.443Z,16.85
2023-04-15T04:00:13.804Z,15.63
2023-04-15T04:02:41.395Z,15.93
2023-04-15T04:05:09.277Z,15.88
2023-04-15T04:07:36.518Z,16.50
2023-04-15T04:10:03.978Z,15.90
2023-04-15T04:12:31.170Z,16.17
2023-04-15T04:14:58.328Z,15.48
2023-04-15T04:17:25.534Z,16.38
2023-04-15T04:19:52.679Z,15.75
2023-04-15T04:22:24.231Z,14.95
2023-04-15T04:24:51.413Z,15.18
2023-04-15T04:27:18.543Z,14.45
2023-04-15T04:29:47.739Z,13.65
2023-04-15T04:32:15.096Z,14.50
2023-04-15T04:34:42.311Z,13.90
2023-04-15T04:37:09.445Z,13.18
2023-04-15T04:39:36.805Z,13.05
2023-04-15T04:42:04.058Z,12.70
2023-04-15T04:44:31.218Z,12.18
2023-04-15T04:46:58.390Z,11.90
2023-04-15T04:49:25.637Z,12.52
2023-04-15T04:51:53.261Z,10.52
2023-04-15T04:54:21.255Z,10.55
2023-04-15T04:56:48.384Z,10.15
2023-04-15T04:59:15.572Z,10.02
2023-04-15T05:01:42.947Z,9.93
2023-04-15T05:04:10.419Z,9.80
2023-04-15T05:06:37.633Z,10.57
2023-04-15T05:09:04.900Z,9.98
2023-04-15T05:11:32.141Z,9.52
2023-04-15T05:14:01.640Z,10.25
2023-04-15T05:16:28.837Z,9.45
2023-04-15T05:18:56.049Z,8.77
2023-04-15T05:21:23.605Z,8.40
2023-04-15T05:23:50.755Z,8.55
2023-04-15T05:26:17.916Z,9.10
2023-04-15T05:28:45.101Z,8.27
2023-04-15T05:31:12.251Z,8.27
2023-04-15T05:33:40.483Z,8.07
2023-04-15T05:36:08.119Z,7.38
2023-04-15T05:38:35.320Z,7.28
2023-04-15T05:41:02.576Z,7.05
2023-04-15T05:43:30.618Z,6.60
2023-04-15T05:45:57.902Z,7.25
2023-04-15T05:48:25.102Z,6.45
2023-04-15T05:50:52.278Z,6.63
2023-04-15T05:53:19.533Z,6.72
2023-04-15T05:55:46.773Z,6.38
2023-04-15T05:58:13.948Z,6.47
2023-04-15T06:00:41.199Z,6.65
2023-04-15T06:03:08.480Z,6.28
2023-04-15T06:05:35.686Z,6.20
2023-04-15T06:08:03.017Z,6.00
2023-04-15T06:10:30.836Z,6.38
2023-04-15T06:12:58.057Z,6.00
2023-04-15T06:15:25.173Z,6.05
2023-04-15T06:17:52.385Z,6.53
2023-04-15T06:20:19.596Z,6.15
2023-04-15T06:22:46.865Z,6.50
2023-04-15T06:25:14.114Z,6.72
2023-04-15T06:27:41.373Z,8.18
2023-04-15T06:30:09.214Z,6.47
2023-04-15T06:32:36.617Z,11.32
2023-04-15T06:35:04.071Z,7.88
2023-04-15T06:37:32.545Z,10.50
2023-04-15T06:39:59.683Z,8.02
2023-04-15T06:42:26.809Z,7.10
2023-04-15T06:44:53.917Z,6.68
2023-04-15T06:47:21.076Z,6.82
2023-04-15T06:49:48.223Z,6.28
2023-04-15T06:52:16.584Z,6.25
2023-04-15T06:54:43.796Z,6.30
2023-04-15T06:57:11.208Z,6.80
2023-04-15T06:59:38.352Z,6.70
2023-04-15T07:02:05.962Z,6.78
2023-04-15T07:04:33.612Z,7.00
2023-04-15T07:07:02.520Z,6.05
2023-04-15T07:09:29.727Z,7.10
2023-04-15T07:11:56.886Z,6.55
2023-04-15T07:14:24.113Z,7.05
2023-04-15T07:16:51.331Z,7.50
2023-04-15T07:19:18.578Z,7.80
2023-04-15T07:21:45.836Z,7.85
2023-04-15T07:24:16.779Z,7.30
2023-04-15T07:26:45.053Z,7.65
2023-04-15T07:29:12.207Z,7.57
2023-04-15T07:31:41.585Z,8.25
2023-04-15T07:34:08.807Z,8.65
2023-04-15T07:36:36.764Z,9.55
2023-04-15T07:39:04.355Z,8.45
2023-04-15T07:41:31.788Z,10.05
2023-04-15T07:43:59.013Z,9.95
2023-04-15T07:46:27.450Z,10.43
2023-04-15T07:48:54.724Z,11.43
2023-04-15T07:51:22.042Z,12.65
2023-04-15T07:53:50.325Z,14.48
2023-04-15T07:56:17.716Z,14.40
2023-04-15T07:58:44.906Z,14.25
2023-04-15T08:01:12.495Z,15.30
2023-04-15T08:03:40.071Z,15.93
2023-04-15T08:06:07.842Z,16.75
2023-04-15T08:08:35.092Z,16.83
2023-04-15T08:11:02.263Z,17.63
2023-04-15T08:13:29.486Z,17.23
2023-04-15T08:16:18.986Z,16.63
2023-04-15T08:18:48.634Z,17.33
2023-04-15T08:21:17.810Z,17.38
2023-04-15T08:23:47.285Z,19.00
2023-04-15T08:26:14.532Z,18.33
2023-04-15T08:28:43.938Z,19.63
2023-04-15T08:31:12.508Z,18.58
2023-04-15T08:33:39.679Z,19.25
2023-04-15T08:36:07.611Z,20.25
2023-04-15T08:38:35.000Z,19.02
2023-04-15T08:41:17.725Z,19.92
2023-04-15T08:43:54.641Z,20.58
2023-04-15T08:46:22.717Z,21.83
2023-04-15T08:48:50.817Z,20.83
2023-04-15T08:51:18.644Z,21.85
2023-04-15T08:53:47.466Z,22.73
2023-04-15T08:56:16.804Z,23.20
2023-04-15T08:58:45.248Z,23.55
2023-04-15T09:01:13.406Z,23.50
2023-04-15T09:03:41.667Z,24.55
2023-04-15T09:06:09.341Z,23.17
2023-04-15T09:08:36.502Z,23.90
2023-04-15T09:11:04.353Z,24.77
2023-04-15T09:13:31.993Z,26.73
2023-04-15T09:16:03.905Z,26.83
2023-04-15T09:18:34.206Z,26.13
2023-04-15T09:21:16.617Z,24.67
2023-04-15T09:23:58.401Z,27.70
2023-04-15T09:26:37.802Z,27.67
2023-04-15T09:29:15.180Z,27.65
2023-04-15T09:31:43.409Z,27.58
2023-04-15T09:34:10.745Z,25.77
2023-04-15T09:36:57.018Z,26.42
2023-04-15T09:39:24.175Z,29.13
2023-04-15T09:42:06.870Z,28.08
2023-04-15T09:44:34.233Z,25.73
2023-04-15T09:47:01.796Z,29.50
2023-04-15T09:49:29.000Z,28.10
2023-04-15T09:52:06.001Z,28.42
2023-04-15T09:54:38.731Z,30.60
2023-04-15T09:57:10.182Z,28.43
2023-04-15T09:59:37.739Z,29.17
2023-04-15T10:02:07.432Z,29.45
2023-04-15T10:04:39.800Z,29.95
2023-04-15T10:07:09.565Z,29.60
2023-04-15T10:09:39.158Z,28.20
2023-04-15T10:12:07.218Z,29.45
2023-04-15T10:14:38.472Z,29.85
2023-04-15T10:17:07.645Z,29.98
2023-04-15T10:19:37.999Z,29.77
2023-04-15T10:22:06.517Z,30.77
2023-04-15T10:24:34.203Z,30.60
2023-04-15T10:27:04.490Z,30.95
2023-04-15T10:29:31.679Z,31.55
2023-04-15T10:32:00.593Z,31.25
2023-04-15T10:34:30.668Z,31.92
2023-04-15T10:37:03.679Z,31.60
2023-04-15T10:39:37.342Z,32.65
2023-04-15T10:42:24.762Z,31.58
2023-04-15T10:44:57.044Z,29.73
2023-04-15T10:47:24.241Z,32.78
2023-04-15T10:49:57.976Z,33.92
2023-04-15T10:52:28.012Z,34.80
2023-04-15T10:55:16.047Z,35.63
2023-04-15T10:57:44.812Z,35.78
2023-04-15T11:00:17.357Z,35.25
2023-04-15T11:02:59.649Z,35.08
2023-04-15T11:05:41.964Z,36.23
2023-04-15T11:08:11.112Z,35.80
2023-04-15T11:10:38.148Z,37.00
2023-04-15T11:13:17.333Z,36.67
2023-04-15T11:15:46.398Z,38.20
2023-04-15T11:18:24.621Z,38.25
2023-04-15T11:20:54.907Z,36.88
2023-04-15T11:23:44.110Z,38.90
2023-04-15T11:26:15.314Z,37.03
2023-04-15T11:28:46.297Z,38.00
2023-04-15T11:31:19.878Z,38.28
2023-04-15T11:34:02.170Z,35.03
2023-04-15T11:36:32.010Z,35.78
2023-04-15T11:39:00.087Z,38.10
2023-04-15T11:41:27.484Z,37.30
2023-04-15T11:43:54.697Z,37.72
2023-04-15T11:46:28.554Z,37.30
2023-04-15T11:48:55.761Z,37.97
2023-04-15T11:51:23.001Z,36.83
2023-04-15T11:53:51.892Z,36.38
2023-04-15T11:56:22.504Z,37.75
2023-04-15T11:58:54.588Z,38.78
2023-04-15T12:01:33.484Z,36.87
2023-04-15T12:04:01.564Z,38.25
2023-04-15T12:06:37.298Z,37.67
2023-04-15T12:09:07.261Z,38.20
2023-04-15T12:11:49.520Z,37.55
2023-04-15T12:14:31.455Z,35.57
2023-04-15T12:17:04.849Z,36.20
2023-04-15T12:19:39.952Z,37.25
2023-04-15T12:22:15.484Z,34.17
2023-04-15T12:24:47.808Z,35.10
2023-04-15T12:27:17.145Z,34.15
2023-04-15T12:29:44.512Z,35.40
2023-04-15T12:32:14.592Z,34.90
2023-04-15T12:34:44.849Z,35.88
2023-04-15T12:37:15.970Z,33.97
2023-04-15T12:39:48.699Z,34.25
2023-04-15T12:42:17.959Z,32.47
2023-04-15T12:44:45.840Z,33.20
2023-04-15T12:47:13.387Z,33.88
2023-04-15T12:49:41.110Z,30.40
2023-04-15T12:52:08.525Z,33.78
2023-04-15T12:54:36.278Z,33.83
2023-04-15T12:57:06.799Z,30.75
2023-04-15T12:59:35.792Z,28.30
2023-04-15T13:02:04.210Z,31.23
2023-04-15T13:04:31.878Z,30.30
2023-04-15T13:06:59.334Z,29.02
2023-04-15T13:09:27.057Z,31.95
2023-04-15T13:11:54.529Z,31.98
2023-04-15T13:14:22.003Z,32.55
2023-04-15T13:16:49.226Z,30.83
2023-04-15T13:19:16.378Z,31.48
2023-04-15T13:21:43.612Z,30.35
2023-04-15T13:24:10.780Z,31.27
2023-04-15T13:26:38.185Z,30.95
2023-04-15T13:29:05.503Z,29.77
2023-04-15T13:31:32.733Z,30.52
2023-04-15T13:34:00.020Z,30.15
2023-04-15T13:36:27.471Z,29.50
2023-04-15T13:38:54.833Z,30.42
2023-04-15T13:41:22.047Z,28.38
2023-04-15T13:43:49.220Z,29.67
2023-04-15T13:46:16.655Z,29.88
2023-04-15T13:48:43.878Z,27.85
2023-04-15T13:51:11.011Z,28.63
2023-04-15T13:53:39.802Z,28.02
2023-04-15T13:56:08.867Z,28.30
2023-04-15T13:58:37.774Z,28.20
2023-04-15T14:01:07.029Z,27.52
2023-04-15T14:03:36.083Z,27.25
2023-04-15T14:06:07.910Z,26.98
2023-04-15T14:08:35.201Z,27.23
2023-04-15T14:11:02.549Z,24.33
2023-04-15T14:13:29.951Z,24.67
2023-04-15T14:15:57.306Z,23.98
2023-04-15T14:18:24.506Z,22.95
2023-04-15T14:20:51.808Z,21.80
2023-04-15T14:23:19.239Z,20.23
2023-04-15T14:25:48.324Z,20.58
2023-04-15T14:28:16.400Z,20.77
2023-04-15T14:30:43.794Z,20.63
2023-04-15T14:33:11.024Z,19.80
2023-04-15T14:35:39.115Z,18.95
2023-04-15T14:38:10.332Z,19.55
2023-04-15T14:40:37.525Z,18.95
2023-04-15T14:43:04.709Z,17.25
2023-04-15T14:45:31.892Z,17.95
2023-04-15T14:47:59.839Z,18.25
2023-04-15T14:50:27.104Z,18.45
2023-04-15T14:52:54.243Z,19.65
2023-04-15T14:55:21.361Z,19.05
2023-04-15T14:57:48.477Z,19.33
2023-04-15T15:00:16.331Z,18.50
2023-04-15T15:02:43.935Z,18.35
2023-04-15T15:05:12.201Z,18.35
2023-04-15T15:07:43.136Z,16.63
2023-04-15T15:10:10.530Z,16.90
2023-04-15T15:12:37.806Z,15.95
2023-04-15T15:15:15.480Z,16.50
2023-04-15T15:17:47.408Z,15.95
2023-04-15T15:20:14.610Z,14.65
2023-04-15T15:22:41.738Z,15.30
2023-04-15T15:25:08.932Z,14.93
2023-04-15T15:27:38.214Z,15.52
2023-04-15T15:30:06.791Z,15.95
2023-04-15T15:32:34.428Z,16.25
2023-04-15T15:35:02.169Z,16.10
2023-04-15T15:37:31.281Z,16.23
2023-04-15T15:39:58.810Z,15.77
2023-04-15T15:42:26.117Z,15.00
2023-04-15T15:44:53.277Z,15.40
2023-04-15T15:47:22.462Z,14.68
2023-04-15T15:49:49.761Z,15.60
2023-04-15T15:52:17.010Z,15.32
2023-04-15T15:54:44.481Z,14.15
2023-04-15T15:57:11.733Z,14.82
2023-04-15T15:59:41.204Z,15.98
2023-04-15T16:02:11.820Z,15.20
2023-04-15T16:04:39.794Z,16.30
2023-04-15T16:07:07.094Z,16.38
2023-04-15T16:09:34.497Z,18.70
2023-04-15T16:12:03.180Z,35.20
2023-04-15T16:14:30.418Z,22.35
2023-04-15T16:16:58.093Z,19.00
2023-04-15T16:19:25.423Z,20.13
2023-04-15T16:21:52.693Z,17.40
2023-04-15T16:24:19.926Z,15.23
2023-04-15T16:26:47.188Z,15.80
2023-04-15T16:29:14.372Z,16.73
2023-04-15T16:31:41.637Z,15.57
2023-04-15T16:34:09.229Z,16.95
2023-04-15T16:36:36.713Z,16.08
2023-04-15T16:39:04.675Z,16.65
2023-04-15T16:41:34.342Z,16.98
2023-04-15T16:44:03.173Z,15.75
2023-04-15T16:46:31.560Z,14.75
2023-04-15T16:48:58.763Z,16.05
2023-04-15T16:51:26.459Z,15.02
2023-04-15T16:53:53.585Z,14.68
2023-04-15T16:56:21.994Z,15.45
2023-04-15T16:58:49.210Z,15.95
2023-04-15T17:01:16.541Z,14.82
2023-04-15T17:03:44.002Z,15.02
2023-04-15T17:06:11.224Z,14.00
2023-04-15T17:08:38.559Z,14.52
2023-04-15T17:11:06.374Z,15.52
2023-04-15T17:13:33.549Z,16.23
2023-04-15T17:16:01.784Z,14.65
2023-04-15T17:18:29.120Z,15.10
2023-04-15T17:20:56.662Z,14.52
2023-04-15T17:23:25.950Z,14.93
2023-04-15T17:25:53.905Z,14.38
2023-04-15T17:28:21.071Z,14.27
2023-04-15T17:30:48.318Z,14.50
2023-04-15T17:33:55.546Z,15.50
2023-04-15T17:36:02.836Z,15.43
2023-04-15T17:38:30.250Z,14.55
2023-04-15T17:40:57.462Z,16.40
2023-04-15T17:43:24.632Z,14.52
2023-04-15T17:45:51.876Z,15.35
2023-04-15T17:48:19.054Z,14.25
2023-04-15T17:50:46.727Z,14.38
2023-04-15T17:53:13.942Z,14.73
2023-04-15T17:55:41.077Z,14.43
2023-04-15T17:58:08.341Z,14.43
2023-04-15T18:00:35.604Z,14.30
2023-04-15T18:03:03.117Z,14.23
2023-04-15T18:05:30.474Z,13.13
2023-04-15T18:07:57.650Z,13.50
2023-04-15T18:10:24.879Z,12.52
2023-04-15T18:12:52.077Z,14.73
2023-04-15T18:15:19.278Z,13.55
2023-04-15T18:17:47.718Z,13.45
2023-04-15T18:20:15.302Z,14.25
2023-04-15T18:22:43.543Z,14.25
2023-04-15T18:25:10.843Z,14.88
2023-04-15T18:27:39.384Z,15.73
2023-04-15T18:30:11.826Z,16.35
2023-04-15T18:32:39.456Z,15.95
2023-04-15T18:35:07.376Z,15.82
2023-04-15T18:37:34.743Z,14.60
2023-04-15T18:40:02.065Z,12.75
2023-04-15T18:42:29.301Z,12.48
2023-04-15T18:44:56.522Z,13.73
2023-04-15T18:47:27.115Z,12.93
2023-04-15T18:49:54.537Z,14.05
2023-04-15T18:52:21.791Z,14.77
2023-04-15T18:54:49.156Z,14.15
2023-04-15T18:57:23.059Z,14.90
2023-04-15T19:00:00.066Z,16.35
2023-04-15T19:02:27.355Z,16.58
2023-04-15T19:04:54.574Z,17.92
2023-04-15T19:07:23.029Z,16.63
2023-04-15T19:09:50.296Z,17.45
2023-04-15T19:12:17.475Z,17.25
2023-04-15T19:14:44.685Z,18.65
2023-04-15T19:17:11.852Z,18.25
2023-04-15T19:19:39.033Z,18.77
2023-04-15T19:22:06.618Z,21.23
2023-04-15T19:24:33.941Z,22.13
2023-04-15T19:27:01.728Z,23.85
2023-04-15T19:29:29.175Z,22.25
2023-04-15T19:31:56.408Z,23.20
2023-04-15T19:34:24.933Z,25.92
2023-04-15T19:36:52.185Z,24.42
2023-04-15T19:39:19.740Z,26.38
2023-04-15T19:41:47.232Z,25.75
2023-04-15T19:44:15.098Z,26.67
2023-04-15T19:46:44.740Z,26.05
2023-04-15T19:49:12.330Z,27.95
2023-04-15T19:51:41.536Z,27.67
2023-04-15T19:54:09.006Z,27.35
2023-04-15T19:56:36.319Z,27.50
2023-04-15T19:59:03.885Z,26.85
2023-04-15T20:01:31.920Z,27.67
2023-04-15T20:03:59.567Z,27.45
2023-04-15T20:06:27.635Z,27.38
2023-04-15T20:08:54.799Z,28.25
2023-04-15T20:11:22.143Z,28.40
2023-04-15T20:13:49.373Z,30.00
2023-04-15T20:16:16.680Z,29.15
2023-04-15T20:18:43.928Z,29.88
2023-04-15T20:21:11.169Z,30.45
2023-04-15T20:23:38.710Z,30.92
2023-04-15T20:26:09.017Z,32.72
2023-04-15T20:28:36.238Z,32.97
2023-04-15T20:31:03.629Z,32.28
2023-04-15T20:33:30.873Z,34.30
2023-04-15T20:35:58.688Z,34.72
2023-04-15T20:38:25.837Z,33.65
2023-04-15T20:40:53.022Z,32.92
2023-04-15T20:43:21.791Z,32.53
2023-04-15T20:45:50.550Z,34.22
2023-04-15T20:48:19.134Z,33.10
2023-04-15T20:50:46.478Z,34.28
2023-04-15T20:53:13.697Z,33.38
2023-04-15T20:55:41.022Z,34.38
2023-04-15T20:58:08.307Z,33.55
2023-04-15T21:00:35.630Z,31.13
2023-04-15T21:03:03.799Z,30.55
2023-04-15T21:05:31.090Z,28.77
2023-04-15T21:07:58.378Z,30.08
2023-04-15T21:10:25.852Z,29.83
2023-04-15T21:12:52.985Z,31.15
2023-04-15T21:15:20.522Z,34.50
2023-04-15T21:17:47.694Z,34.25
2023-04-15T21:20:15.170Z,34.15
2023-04-15T21:22:42.833Z,34.20
2023-04-15T21:25:10.323Z,37.92
2023-04-15T21:27:37.689Z,35.95
2023-04-15T21:30:05.688Z,39.00
2023-04-15T21:32:32.944Z,40.15
2023-04-15T21:35:00.155Z,38.28
2023-04-15T21:37:27.399Z,38.45
2023-04-15T21:39:54.612Z,39.25
2023-04-15T21:42:21.808Z,40.22
2023-04-15T21:44:48.972Z,38.47
2023-04-15T21:47:16.215Z,40.40
2023-04-15T21:49:43.529Z,38.92
2023-04-15T21:52:10.719Z,40.30
2023-04-15T21:54:38.108Z,40.08
2023-04-15T21:57:05.336Z,38.65
2023-04-15T21:59:32.521Z,38.85
2023-04-15T22:01:59.872Z,40.72
2023-04-15T22:04:27.314Z,40.50
2023-04-15T22:06:57.903Z,40.17
2023-04-15T22:09:25.118Z,40.85
2023-04-15T22:11:52.272Z,41.05
2023-04-15T22:14:19.444Z,40.78
2023-04-15T22:16:46.719Z,42.03
2023-04-15T22:19:13.926Z,39.13
2023-04-15T22:21:41.108Z,42.88
2023-04-15T22:24:32.602Z,41.60
2023-04-15T22:26:55.708Z,42.58
2023-04-15T22:29:22.875Z,41.40
2023-04-15T22:31:50.174Z,41.78
2023-04-15T22:34:21.354Z,41.40
2023-04-15T22:36:52.719Z,40.30
2023-04-15T22:39:20.453Z,41.13
2023-04-15T22:41:47.904Z,42.53
2023-04-15T22:44:15.092Z,40.63
2023-04-15T22:46:43.140Z,42.50
2023-04-15T22:49:10.761Z,40.28
2023-04-15T22:51:38.265Z,42.35
2023-04-15T22:54:05.555Z,42.83
2023-04-15T22:56:32.781Z,42.85
2023-04-15T22:58:59.969Z,43.30
2023-04-15T23:01:27.263Z,44.13
2023-04-15T23:03:55.925Z,43.67
2023-04-15T23:06:27.207Z,45.80
2023-04-15T23:08:54.549Z,46.25
2023-04-15T23:11:21.981Z,46.83
2023-04-15T23:13:50.547Z,47.33
2023-04-15T23:16:17.760Z,46.22
2023-04-15T23:18:45.013Z,46.10
2023-04-15T23:21:12.197Z,46.20
2023-04-15T23:23:39.553Z,45.90
2023-04-15T23:26:06.759Z,45.03
2023-04-15T23:28:33.928Z,46.28
2023-04-15T23:31:01.135Z,46.15
2023-04-15T23:33:28.304Z,45.70
2023-04-15T23:35:55.496Z,48.50
2023-04-15T23:38:22.629Z,46.60
2023-04-15T23:40:51.096Z,49.60
2023-04-15T23:43:18.263Z,45.97
2023-04-15T23:45:45.540Z,46.50
2023-04-15T23:48:12.726Z,47.15
2023-04-15T23:50:39.928Z,45.63
2023-04-15T23:53:07.129Z,45.00
2023-04-15T23:55:35.101Z,45.35
2023-04-15T23:58:02.360Z,46.47
